sensor_id;sensor_type;location;lat;lon;timestamp;temperature;humidity
4602;DHT22;2313;48.552;9.370;2023-09-07T00:01:53;16.20;99.90
4602;DHT22;2313;48.552;9.370;2023-09-07T00:04:19;16.10;99.90
4602;DHT22;2313;48.552;9.370;2023-09-07T00:06:48;16.20;99.90
4602;DHT22;2313;48.552;9.370;2023-09-07T00:09:15;16.30;99.90
4602;DHT22;2313;48.552;9.370;2023-09-07T00:11:41;16.20;99.90
4602;DHT22;2313;48.552;9.370;2023-09-07T00:14:07;16.20;99.90
4602;DHT22;2313;48.552;9.370;2023-09-07T00:16:33;16.10;99.90
4602;DHT22;2313;48.552;9.370;2023-09-07T00:19:04;16.00;99.90
4602;DHT22;2313;48.552;9.370;2023-09-07T00:21:30;16.10;99.90
4602;DHT22;2313;48.552;9.370;2023-09-07T00:23:55;16.00;99.90
4602;DHT22;2313;48.552;9.370;2023-09-07T00:26:21;16.00;99.90
4602;DHT22;2313;48.552;9.370;2023-09-07T00:28:47;15.90;99.90
4602;DHT22;2313;48.552;9.370;2023-09-07T00:31:13;15.90;99.90
4602;DHT22;2313;48.552;9.370;2023-09-07T00:33:39;15.80;99.90
4602;DHT22;2313;48.552;9.370;2023-09-07T00:36:04;15.80;99.90
4602;DHT22;2313;48.552;9.370;2023-09-07T00:38:30;15.70;99.90
4602;DHT22;2313;48.552;9.370;2023-09-07T00:40:56;15.70;99.90
4602;DHT22;2313;48.552;9.370;2023-09-07T00:43:21;15.70;99.90
4602;DHT22;2313;48.552;9.370;2023-09-07T00:45:47;15.60;99.90
4602;DHT22;2313;48.552;9.370;2023-09-07T00:48:14;15.60;99.90
4602;DHT22;2313;48.552;9.370;2023-09-07T00:50:41;15.60;99.90
4602;DHT22;2313;48.552;9.370;2023-09-07T00:53:07;15.50;99.90
4602;DHT22;2313;48.552;9.370;2023-09-07T00:55:33;15.50;99.90
4602;DHT22;2313;48.552;9.370;2023-09-07T00:58:01;15.50;99.90
4602;DHT22;2313;48.552;9.370;2023-09-07T01:00:27;15.40;99.90
4602;DHT22;2313;48.552;9.370;2023-09-07T01:02:52;15.40;99.90
4602;DHT22;2313;48.552;9.370;2023-09-07T01:05:19;15.40;99.90
4602;DHT22;2313;48.552;9.370;2023-09-07T01:07:48;15.40;99.90
4602;DHT22;2313;48.552;9.370;2023-09-07T01:10:18;15.30;99.90
4602;DHT22;2313;48.552;9.370;2023-09-07T01:12:46;15.30;99.90
4602;DHT22;2313;48.552;9.370;2023-09-07T01:15:11;15.40;99.90
4602;DHT22;2313;48.552;9.370;2023-09-07T01:17:37;15.40;99.90
4602;DHT22;2313;48.552;9.370;2023-09-07T01:20:05;15.40;99.90
4602;DHT22;2313;48.552;9.370;2023-09-07T01:22:37;15.30;99.90
4602;DHT22;2313;48.552;9.370;2023-09-07T01:25:05;15.20;99.90
4602;DHT22;2313;48.552;9.370;2023-09-07T01:27:32;15.20;99.90
4602;DHT22;2313;48.552;9.370;2023-09-07T01:29:58;15.10;99.90
4602;DHT22;2313;48.552;9.370;2023-09-07T01:32:23;15.00;99.90
4602;DHT22;2313;48.552;9.370;2023-09-07T01:34:50;14.90;99.90
4602;DHT22;2313;48.552;9.370;2023-09-07T01:37:16;15.00;99.90
4602;DHT22;2313;48.552;9.370;2023-09-07T01:39:41;15.00;99.90
4602;DHT22;2313;48.552;9.370;2023-09-07T01:42:07;15.00;99.90
4602;DHT22;2313;48.552;9.370;2023-09-07T01:44:32;15.00;99.90
4602;DHT22;2313;48.552;9.370;2023-09-07T01:46:58;15.00;99.90
4602;DHT22;2313;48.552;9.370;2023-09-07T01:49:24;14.90;99.90
4602;DHT22;2313;48.552;9.370;2023-09-07T01:51:51;14.70;99.90
4602;DHT22;2313;48.552;9.370;2023-09-07T01:54:18;14.70;99.90
4602;DHT22;2313;48.552;9.370;2023-09-07T01:56:43;14.80;99.90
4602;DHT22;2313;48.552;9.370;2023-09-07T01:59:09;14.80;99.90
4602;DHT22;2313;48.552;9.370;2023-09-07T02:01:35;14.80;99.90
4602;DHT22;2313;48.552;9.370;2023-09-07T02:04:03;14.90;99.90
4602;DHT22;2313;48.552;9.370;2023-09-07T02:06:28;14.80;99.90
4602;DHT22;2313;48.552;9.370;2023-09-07T02:08:54;14.90;99.90
4602;DHT22;2313;48.552;9.370;2023-09-07T02:11:19;15.00;99.90
4602;DHT22;2313;48.552;9.370;2023-09-07T02:13:47;14.90;99.90
4602;DHT22;2313;48.552;9.370;2023-09-07T02:16:13;15.00;99.90
4602;DHT22;2313;48.552;9.370;2023-09-07T02:18:38;14.90;99.90
4602;DHT22;2313;48.552;9.370;2023-09-07T02:21:09;15.00;99.90
4602;DHT22;2313;48.552;9.370;2023-09-07T02:23:35;15.00;99.90
4602;DHT22;2313;48.552;9.370;2023-09-07T02:26:04;14.90;99.90
4602;DHT22;2313;48.552;9.370;2023-09-07T02:28:30;14.80;99.90
4602;DHT22;2313;48.552;9.370;2023-09-07T02:31:03;14.80;99.90
4602;DHT22;2313;48.552;9.370;2023-09-07T02:33:28;14.70;99.90
4602;DHT22;2313;48.552;9.370;2023-09-07T02:35:54;14.70;99.90
4602;DHT22;2313;48.552;9.370;2023-09-07T02:38:20;14.70;99.90
4602;DHT22;2313;48.552;9.370;2023-09-07T02:40:45;14.60;99.90
4602;DHT22;2313;48.552;9.370;2023-09-07T02:43:11;14.60;99.90
4602;DHT22;2313;48.552;9.370;2023-09-07T02:45:38;14.60;99.90
4602;DHT22;2313;48.552;9.370;2023-09-07T02:48:04;14.50;99.90
4602;DHT22;2313;48.552;9.370;2023-09-07T02:50:32;14.60;99.90
4602;DHT22;2313;48.552;9.370;2023-09-07T02:52:58;14.60;99.90
4602;DHT22;2313;48.552;9.370;2023-09-07T02:55:25;14.60;99.90
4602;DHT22;2313;48.552;9.370;2023-09-07T02:57:51;14.60;99.90
4602;DHT22;2313;48.552;9.370;2023-09-07T03:00:17;14.50;99.90
4602;DHT22;2313;48.552;9.370;2023-09-07T03:02:43;14.50;99.90
4602;DHT22;2313;48.552;9.370;2023-09-07T03:05:09;14.50;99.90
4602;DHT22;2313;48.552;9.370;2023-09-07T03:07:35;14.30;99.90
4602;DHT22;2313;48.552;9.370;2023-09-07T03:10:01;14.30;99.90
4602;DHT22;2313;48.552;9.370;2023-09-07T03:12:27;14.40;99.90
4602;DHT22;2313;48.552;9.370;2023-09-07T03:14:53;14.30;99.90
4602;DHT22;2313;48.552;9.370;2023-09-07T03:17:19;14.20;99.90
4602;DHT22;2313;48.552;9.370;2023-09-07T03:19:46;14.30;99.90
4602;DHT22;2313;48.552;9.370;2023-09-07T03:22:12;14.30;99.90
4602;DHT22;2313;48.552;9.370;2023-09-07T03:24:38;14.20;99.90
4602;DHT22;2313;48.552;9.370;2023-09-07T03:27:04;14.20;99.90
4602;DHT22;2313;48.552;9.370;2023-09-07T03:29:31;14.20;99.90
4602;DHT22;2313;48.552;9.370;2023-09-07T03:31:59;14.20;99.90
4602;DHT22;2313;48.552;9.370;2023-09-07T03:34:24;14.10;99.90
4602;DHT22;2313;48.552;9.370;2023-09-07T03:36:50;14.10;99.90
4602;DHT22;2313;48.552;9.370;2023-09-07T03:39:16;14.10;99.90
4602;DHT22;2313;48.552;9.370;2023-09-07T03:41:44;14.20;99.90
4602;DHT22;2313;48.552;9.370;2023-09-07T03:44:09;14.20;99.90
4602;DHT22;2313;48.552;9.370;2023-09-07T03:46:35;14.20;99.90
4602;DHT22;2313;48.552;9.370;2023-09-07T03:49:01;14.20;99.90
4602;DHT22;2313;48.552;9.370;2023-09-07T03:51:26;14.20;99.90
4602;DHT22;2313;48.552;9.370;2023-09-07T03:53:52;14.00;99.90
4602;DHT22;2313;48.552;9.370;2023-09-07T03:56:17;14.20;99.90
4602;DHT22;2313;48.552;9.370;2023-09-07T03:58:43;14.20;99.90
4602;DHT22;2313;48.552;9.370;2023-09-07T04:01:08;14.20;99.90
4602;DHT22;2313;48.552;9.370;2023-09-07T04:03:34;14.20;99.90
4602;DHT22;2313;48.552;9.370;2023-09-07T04:06:00;14.20;99.90
4602;DHT22;2313;48.552;9.370;2023-09-07T04:08:25;14.30;99.90
4602;DHT22;2313;48.552;9.370;2023-09-07T04:10:51;14.20;99.90
4602;DHT22;2313;48.552;9.370;2023-09-07T04:13:16;14.20;99.90
4602;DHT22;2313;48.552;9.370;2023-09-07T04:15:43;14.10;99.90
4602;DHT22;2313;48.552;9.370;2023-09-07T04:18:12;14.10;99.90
4602;DHT22;2313;48.552;9.370;2023-09-07T04:20:40;14.10;99.90
4602;DHT22;2313;48.552;9.370;2023-09-07T04:23:06;14.20;99.90
4602;DHT22;2313;48.552;9.370;2023-09-07T04:25:31;14.20;99.90
4602;DHT22;2313;48.552;9.370;2023-09-07T04:27:58;14.20;99.90
4602;DHT22;2313;48.552;9.370;2023-09-07T04:30:24;14.20;99.90
4602;DHT22;2313;48.552;9.370;2023-09-07T04:32:49;14.10;99.90
4602;DHT22;2313;48.552;9.370;2023-09-07T04:35:15;14.10;99.90
4602;DHT22;2313;48.552;9.370;2023-09-07T04:37:45;14.00;99.90
4602;DHT22;2313;48.552;9.370;2023-09-07T04:40:11;14.00;99.90
4602;DHT22;2313;48.552;9.370;2023-09-07T04:42:37;14.00;99.90
4602;DHT22;2313;48.552;9.370;2023-09-07T04:45:05;14.10;99.90
4602;DHT22;2313;48.552;9.370;2023-09-07T04:47:31;14.00;99.90
4602;DHT22;2313;48.552;9.370;2023-09-07T04:49:57;14.00;99.90
4602;DHT22;2313;48.552;9.370;2023-09-07T04:52:23;13.90;99.90
4602;DHT22;2313;48.552;9.370;2023-09-07T04:54:48;13.90;99.90
4602;DHT22;2313;48.552;9.370;2023-09-07T04:57:16;13.80;99.90
4602;DHT22;2313;48.552;9.370;2023-09-07T04:59:45;13.80;99.90
4602;DHT22;2313;48.552;9.370;2023-09-07T05:02:10;13.90;99.90
4602;DHT22;2313;48.552;9.370;2023-09-07T05:04:37;13.90;99.90
4602;DHT22;2313;48.552;9.370;2023-09-07T05:07:03;13.90;99.90
4602;DHT22;2313;48.552;9.370;2023-09-07T05:09:29;13.90;99.90
4602;DHT22;2313;48.552;9.370;2023-09-07T05:11:55;13.80;99.90
4602;DHT22;2313;48.552;9.370;2023-09-07T05:14:23;13.80;99.90
4602;DHT22;2313;48.552;9.370;2023-09-07T05:16:49;13.80;99.90
4602;DHT22;2313;48.552;9.370;2023-09-07T05:19:14;13.80;99.90
4602;DHT22;2313;48.552;9.370;2023-09-07T05:21:40;13.80;99.90
4602;DHT22;2313;48.552;9.370;2023-09-07T05:24:06;13.80;99.90
4602;DHT22;2313;48.552;9.370;2023-09-07T05:26:32;13.80;99.90
4602;DHT22;2313;48.552;9.370;2023-09-07T05:28:57;13.80;99.90
4602;DHT22;2313;48.552;9.370;2023-09-07T05:31:23;13.80;99.90
4602;DHT22;2313;48.552;9.370;2023-09-07T05:33:48;13.80;99.90
4602;DHT22;2313;48.552;9.370;2023-09-07T05:36:14;13.90;99.90
4602;DHT22;2313;48.552;9.370;2023-09-07T05:38:39;14.00;99.90
4602;DHT22;2313;48.552;9.370;2023-09-07T05:41:06;14.10;99.90
4602;DHT22;2313;48.552;9.370;2023-09-07T05:43:32;14.10;99.90
4602;DHT22;2313;48.552;9.370;2023-09-07T05:45:57;14.20;99.90
4602;DHT22;2313;48.552;9.370;2023-09-07T05:48:23;14.20;99.90
4602;DHT22;2313;48.552;9.370;2023-09-07T05:50:48;14.20;99.90
4602;DHT22;2313;48.552;9.370;2023-09-07T05:53:14;14.30;99.90
4602;DHT22;2313;48.552;9.370;2023-09-07T05:55:40;14.30;99.90
4602;DHT22;2313;48.552;9.370;2023-09-07T05:58:07;14.50;99.90
4602;DHT22;2313;48.552;9.370;2023-09-07T06:00:34;14.70;99.90
4602;DHT22;2313;48.552;9.370;2023-09-07T06:03:00;14.70;99.90
4602;DHT22;2313;48.552;9.370;2023-09-07T06:05:26;14.90;99.90
4602;DHT22;2313;48.552;9.370;2023-09-07T06:07:51;15.00;99.90
4602;DHT22;2313;48.552;9.370;2023-09-07T06:10:17;15.20;99.90
4602;DHT22;2313;48.552;9.370;2023-09-07T06:12:44;15.30;99.90
4602;DHT22;2313;48.552;9.370;2023-09-07T06:15:10;15.50;99.90
4602;DHT22;2313;48.552;9.370;2023-09-07T06:17:36;15.70;99.90
4602;DHT22;2313;48.552;9.370;2023-09-07T06:20:02;16.10;99.90
4602;DHT22;2313;48.552;9.370;2023-09-07T06:22:28;16.40;99.90
4602;DHT22;2313;48.552;9.370;2023-09-07T06:24:54;16.70;99.90
4602;DHT22;2313;48.552;9.370;2023-09-07T06:27:19;17.10;99.90
4602;DHT22;2313;48.552;9.370;2023-09-07T06:29:45;17.30;99.90
4602;DHT22;2313;48.552;9.370;2023-09-07T06:32:11;17.40;99.90
4602;DHT22;2313;48.552;9.370;2023-09-07T06:34:37;17.50;99.90
4602;DHT22;2313;48.552;9.370;2023-09-07T06:37:03;17.20;99.90
4602;DHT22;2313;48.552;9.370;2023-09-07T06:39:28;17.70;99.90
4602;DHT22;2313;48.552;9.370;2023-09-07T06:41:54;17.50;99.90
4602;DHT22;2313;48.552;9.370;2023-09-07T06:44:19;17.30;99.90
4602;DHT22;2313;48.552;9.370;2023-09-07T06:46:45;17.10;99.90
4602;DHT22;2313;48.552;9.370;2023-09-07T06:49:11;17.00;99.90
4602;DHT22;2313;48.552;9.370;2023-09-07T06:51:36;16.90;99.90
4602;DHT22;2313;48.552;9.370;2023-09-07T06:54:02;16.80;99.90
4602;DHT22;2313;48.552;9.370;2023-09-07T06:56:29;16.80;99.90
4602;DHT22;2313;48.552;9.370;2023-09-07T06:58:56;16.80;99.90
4602;DHT22;2313;48.552;9.370;2023-09-07T07:01:22;16.80;99.90
4602;DHT22;2313;48.552;9.370;2023-09-07T07:03:47;16.80;99.90
4602;DHT22;2313;48.552;9.370;2023-09-07T07:06:14;16.80;99.90
4602;DHT22;2313;48.552;9.370;2023-09-07T07:08:40;16.90;99.90
4602;DHT22;2313;48.552;9.370;2023-09-07T07:11:05;17.00;99.90
4602;DHT22;2313;48.552;9.370;2023-09-07T07:13:31;17.00;99.90
4602;DHT22;2313;48.552;9.370;2023-09-07T07:15:56;17.10;99.90
4602;DHT22;2313;48.552;9.370;2023-09-07T07:18:22;17.20;99.90
4602;DHT22;2313;48.552;9.370;2023-09-07T07:20:48;17.20;99.90
4602;DHT22;2313;48.552;9.370;2023-09-07T07:23:13;17.30;99.90
4602;DHT22;2313;48.552;9.370;2023-09-07T07:25:39;17.40;99.90
4602;DHT22;2313;48.552;9.370;2023-09-07T07:28:05;17.40;99.90
4602;DHT22;2313;48.552;9.370;2023-09-07T07:30:35;17.50;99.90
4602;DHT22;2313;48.552;9.370;2023-09-07T07:33:02;17.60;99.90
4602;DHT22;2313;48.552;9.370;2023-09-07T07:35:32;17.70;99.90
4602;DHT22;2313;48.552;9.370;2023-09-07T07:37:58;17.70;99.90
4602;DHT22;2313;48.552;9.370;2023-09-07T07:40:24;17.80;99.90
4602;DHT22;2313;48.552;9.370;2023-09-07T07:42:52;17.80;99.90
4602;DHT22;2313;48.552;9.370;2023-09-07T07:45:18;17.90;99.90
4602;DHT22;2313;48.552;9.370;2023-09-07T07:47:45;18.10;99.90
4602;DHT22;2313;48.552;9.370;2023-09-07T07:50:11;18.20;99.90
4602;DHT22;2313;48.552;9.370;2023-09-07T07:52:37;18.30;99.90
4602;DHT22;2313;48.552;9.370;2023-09-07T07:55:03;18.40;99.90
4602;DHT22;2313;48.552;9.370;2023-09-07T07:57:29;18.40;99.90
4602;DHT22;2313;48.552;9.370;2023-09-07T07:59:56;18.50;99.90
4602;DHT22;2313;48.552;9.370;2023-09-07T08:02:21;18.70;99.90
4602;DHT22;2313;48.552;9.370;2023-09-07T08:04:47;18.80;99.90
4602;DHT22;2313;48.552;9.370;2023-09-07T08:07:13;18.90;99.90
4602;DHT22;2313;48.552;9.370;2023-09-07T08:09:38;19.10;99.90
4602;DHT22;2313;48.552;9.370;2023-09-07T08:12:05;19.20;99.90
4602;DHT22;2313;48.552;9.370;2023-09-07T08:14:31;19.20;99.90
4602;DHT22;2313;48.552;9.370;2023-09-07T08:16:57;19.40;99.90
4602;DHT22;2313;48.552;9.370;2023-09-07T08:19:23;19.50;99.90
4602;DHT22;2313;48.552;9.370;2023-09-07T08:21:49;19.60;99.90
4602;DHT22;2313;48.552;9.370;2023-09-07T08:24:14;19.60;99.90
4602;DHT22;2313;48.552;9.370;2023-09-07T08:26:40;19.70;99.90
4602;DHT22;2313;48.552;9.370;2023-09-07T08:29:06;19.80;99.90
4602;DHT22;2313;48.552;9.370;2023-09-07T08:31:33;20.00;99.90
4602;DHT22;2313;48.552;9.370;2023-09-07T08:34:00;20.10;99.90
4602;DHT22;2313;48.552;9.370;2023-09-07T08:36:27;20.20;99.90
4602;DHT22;2313;48.552;9.370;2023-09-07T08:38:54;20.30;99.90
4602;DHT22;2313;48.552;9.370;2023-09-07T08:41:21;20.40;99.90
4602;DHT22;2313;48.552;9.370;2023-09-07T08:43:46;20.50;99.90
4602;DHT22;2313;48.552;9.370;2023-09-07T08:46:15;20.70;99.90
4602;DHT22;2313;48.552;9.370;2023-09-07T08:48:43;20.70;99.90
4602;DHT22;2313;48.552;9.370;2023-09-07T08:51:12;20.90;99.90
4602;DHT22;2313;48.552;9.370;2023-09-07T08:53:39;21.10;99.90
4602;DHT22;2313;48.552;9.370;2023-09-07T08:56:06;21.20;99.90
4602;DHT22;2313;48.552;9.370;2023-09-07T08:58:36;21.30;99.90
4602;DHT22;2313;48.552;9.370;2023-09-07T09:01:01;21.50;99.90
4602;DHT22;2313;48.552;9.370;2023-09-07T09:03:28;21.70;99.90
4602;DHT22;2313;48.552;9.370;2023-09-07T09:05:56;21.80;99.90
4602;DHT22;2313;48.552;9.370;2023-09-07T09:08:22;22.10;99.90
4602;DHT22;2313;48.552;9.370;2023-09-07T09:10:59;22.40;99.90
4602;DHT22;2313;48.552;9.370;2023-09-07T09:13:32;22.50;99.90
4602;DHT22;2313;48.552;9.370;2023-09-07T09:16:00;22.80;99.90
4602;DHT22;2313;48.552;9.370;2023-09-07T09:18:27;23.10;99.90
4602;DHT22;2313;48.552;9.370;2023-09-07T09:20:54;23.50;99.90
4602;DHT22;2313;48.552;9.370;2023-09-07T09:23:20;23.70;99.90
4602;DHT22;2313;48.552;9.370;2023-09-07T09:25:48;24.10;99.90
4602;DHT22;2313;48.552;9.370;2023-09-07T09:28:14;24.80;99.90
4602;DHT22;2313;48.552;9.370;2023-09-07T09:30:41;25.20;99.90
4602;DHT22;2313;48.552;9.370;2023-09-07T09:33:09;25.50;99.90
4602;DHT22;2313;48.552;9.370;2023-09-07T09:35:35;25.80;99.90
4602;DHT22;2313;48.552;9.370;2023-09-07T09:38:01;25.60;99.90
4602;DHT22;2313;48.552;9.370;2023-09-07T09:40:32;26.40;99.90
4602;DHT22;2313;48.552;9.370;2023-09-07T09:43:02;27.10;99.90
4602;DHT22;2313;48.552;9.370;2023-09-07T09:45:28;27.30;99.90
4602;DHT22;2313;48.552;9.370;2023-09-07T09:47:55;27.50;99.90
4602;DHT22;2313;48.552;9.370;2023-09-07T09:50:25;27.70;99.90
4602;DHT22;2313;48.552;9.370;2023-09-07T09:52:52;27.50;99.90
4602;DHT22;2313;48.552;9.370;2023-09-07T09:55:18;28.10;99.90
4602;DHT22;2313;48.552;9.370;2023-09-07T09:57:44;28.50;99.90
4602;DHT22;2313;48.552;9.370;2023-09-07T10:00:10;29.00;99.90
4602;DHT22;2313;48.552;9.370;2023-09-07T10:02:50;28.80;99.90
4602;DHT22;2313;48.552;9.370;2023-09-07T10:05:16;29.00;99.90
4602;DHT22;2313;48.552;9.370;2023-09-07T10:07:44;29.00;99.90
4602;DHT22;2313;48.552;9.370;2023-09-07T10:10:13;29.70;99.90
4602;DHT22;2313;48.552;9.370;2023-09-07T10:12:52;29.70;99.90
4602;DHT22;2313;48.552;9.370;2023-09-07T10:15:22;29.90;99.90
4602;DHT22;2313;48.552;9.370;2023-09-07T10:17:48;29.70;99.90
4602;DHT22;2313;48.552;9.370;2023-09-07T10:20:16;29.90;99.90
4602;DHT22;2313;48.552;9.370;2023-09-07T10:22:43;30.10;99.90
4602;DHT22;2313;48.552;9.370;2023-09-07T10:25:22;29.70;99.90
4602;DHT22;2313;48.552;9.370;2023-09-07T10:27:48;30.10;99.90
4602;DHT22;2313;48.552;9.370;2023-09-07T10:30:14;30.50;99.90
4602;DHT22;2313;48.552;9.370;2023-09-07T10:32:48;30.70;99.90
4602;DHT22;2313;48.552;9.370;2023-09-07T10:35:15;31.00;99.90
4602;DHT22;2313;48.552;9.370;2023-09-07T10:37:42;30.80;99.90
4602;DHT22;2313;48.552;9.370;2023-09-07T10:40:09;30.80;99.90
4602;DHT22;2313;48.552;9.370;2023-09-07T10:42:37;31.00;99.90
4602;DHT22;2313;48.552;9.370;2023-09-07T10:45:14;31.10;99.90
4602;DHT22;2313;48.552;9.370;2023-09-07T10:47:44;31.40;99.90
4602;DHT22;2313;48.552;9.370;2023-09-07T10:50:13;31.10;99.90
4602;DHT22;2313;48.552;9.370;2023-09-07T10:52:40;31.40;99.90
4602;DHT22;2313;48.552;9.370;2023-09-07T10:55:08;31.30;99.90
4602;DHT22;2313;48.552;9.370;2023-09-07T10:57:42;31.30;99.90
4602;DHT22;2313;48.552;9.370;2023-09-07T11:00:09;31.40;99.90
4602;DHT22;2313;48.552;9.370;2023-09-07T11:02:37;31.40;99.90
4602;DHT22;2313;48.552;9.370;2023-09-07T11:05:03;31.50;99.90
4602;DHT22;2313;48.552;9.370;2023-09-07T11:07:29;31.50;99.90
4602;DHT22;2313;48.552;9.370;2023-09-07T11:09:55;31.50;99.90
4602;DHT22;2313;48.552;9.370;2023-09-07T11:12:21;31.50;99.90
4602;DHT22;2313;48.552;9.370;2023-09-07T11:14:47;31.60;99.90
4602;DHT22;2313;48.552;9.370;2023-09-07T11:17:13;31.60;99.90
4602;DHT22;2313;48.552;9.370;2023-09-07T11:19:39;31.20;99.90
4602;DHT22;2313;48.552;9.370;2023-09-07T11:22:04;31.30;99.90
4602;DHT22;2313;48.552;9.370;2023-09-07T11:24:34;31.40;99.90
4602;DHT22;2313;48.552;9.370;2023-09-07T11:27:00;31.30;99.90
4602;DHT22;2313;48.552;9.370;2023-09-07T11:29:26;31.50;99.90
4602;DHT22;2313;48.552;9.370;2023-09-07T11:31:51;31.60;99.90
4602;DHT22;2313;48.552;9.370;2023-09-07T11:34:17;31.60;99.90
4602;DHT22;2313;48.552;9.370;2023-09-07T11:36:43;31.50;99.90
4602;DHT22;2313;48.552;9.370;2023-09-07T11:39:09;31.80;99.90
4602;DHT22;2313;48.552;9.370;2023-09-07T11:41:41;31.80;99.90
4602;DHT22;2313;48.552;9.370;2023-09-07T11:44:08;31.80;99.90
4602;DHT22;2313;48.552;9.370;2023-09-07T11:46:34;31.80;99.90
4602;DHT22;2313;48.552;9.370;2023-09-07T11:49:00;31.80;99.90
4602;DHT22;2313;48.552;9.370;2023-09-07T11:51:25;31.90;99.90
4602;DHT22;2313;48.552;9.370;2023-09-07T11:53:51;32.00;99.90
4602;DHT22;2313;48.552;9.370;2023-09-07T11:56:17;32.10;99.90
4602;DHT22;2313;48.552;9.370;2023-09-07T11:58:42;32.10;99.90
4602;DHT22;2313;48.552;9.370;2023-09-07T12:01:09;32.10;99.90
4602;DHT22;2313;48.552;9.370;2023-09-07T12:03:36;32.00;99.90
4602;DHT22;2313;48.552;9.370;2023-09-07T12:06:02;32.00;99.90
4602;DHT22;2313;48.552;9.370;2023-09-07T12:08:28;32.10;99.90
4602;DHT22;2313;48.552;9.370;2023-09-07T12:10:53;32.10;99.90
4602;DHT22;2313;48.552;9.370;2023-09-07T12:13:19;32.10;99.90
4602;DHT22;2313;48.552;9.370;2023-09-07T12:15:45;31.70;99.90
4602;DHT22;2313;48.552;9.370;2023-09-07T12:18:10;31.90;99.90
4602;DHT22;2313;48.552;9.370;2023-09-07T12:20:36;31.90;99.90
4602;DHT22;2313;48.552;9.370;2023-09-07T12:23:01;31.80;99.90
4602;DHT22;2313;48.552;9.370;2023-09-07T12:25:30;31.80;99.90
4602;DHT22;2313;48.552;9.370;2023-09-07T12:27:55;31.90;99.90
4602;DHT22;2313;48.552;9.370;2023-09-07T12:30:22;32.00;99.90
4602;DHT22;2313;48.552;9.370;2023-09-07T12:32:49;31.80;99.90
4602;DHT22;2313;48.552;9.370;2023-09-07T12:35:15;31.80;99.90
4602;DHT22;2313;48.552;9.370;2023-09-07T12:37:41;31.80;99.90
4602;DHT22;2313;48.552;9.370;2023-09-07T12:40:07;31.20;99.90
4602;DHT22;2313;48.552;9.370;2023-09-07T12:42:38;30.90;99.90
4602;DHT22;2313;48.552;9.370;2023-09-07T12:45:05;30.60;99.90
4602;DHT22;2313;48.552;9.370;2023-09-07T12:47:32;30.30;99.90
4602;DHT22;2313;48.552;9.370;2023-09-07T12:49:57;30.20;99.90
4602;DHT22;2313;48.552;9.370;2023-09-07T12:52:23;30.00;99.90
4602;DHT22;2313;48.552;9.370;2023-09-07T12:54:49;29.90;99.90
4602;DHT22;2313;48.552;9.370;2023-09-07T12:57:14;29.90;99.90
4602;DHT22;2313;48.552;9.370;2023-09-07T12:59:40;29.70;99.90
4602;DHT22;2313;48.552;9.370;2023-09-07T13:02:05;29.70;99.90
4602;DHT22;2313;48.552;9.370;2023-09-07T13:04:31;29.60;99.90
4602;DHT22;2313;48.552;9.370;2023-09-07T13:06:57;29.30;99.90
4602;DHT22;2313;48.552;9.370;2023-09-07T13:09:22;29.20;99.90
4602;DHT22;2313;48.552;9.370;2023-09-07T13:11:48;29.10;99.90
4602;DHT22;2313;48.552;9.370;2023-09-07T13:14:13;29.20;99.90
4602;DHT22;2313;48.552;9.370;2023-09-07T13:16:39;29.30;99.90
4602;DHT22;2313;48.552;9.370;2023-09-07T13:19:05;29.30;99.90
4602;DHT22;2313;48.552;9.370;2023-09-07T13:21:31;29.30;99.90
4602;DHT22;2313;48.552;9.370;2023-09-07T13:23:57;29.30;99.90
4602;DHT22;2313;48.552;9.370;2023-09-07T13:26:22;29.30;99.90
4602;DHT22;2313;48.552;9.370;2023-09-07T13:28:48;29.20;99.90
4602;DHT22;2313;48.552;9.370;2023-09-07T13:31:14;29.30;99.90
4602;DHT22;2313;48.552;9.370;2023-09-07T13:33:39;29.30;99.90
4602;DHT22;2313;48.552;9.370;2023-09-07T13:36:05;29.40;99.90
4602;DHT22;2313;48.552;9.370;2023-09-07T13:38:31;29.30;99.90
4602;DHT22;2313;48.552;9.370;2023-09-07T13:40:56;29.30;99.90
4602;DHT22;2313;48.552;9.370;2023-09-07T13:43:22;29.20;99.90
4602;DHT22;2313;48.552;9.370;2023-09-07T13:45:47;29.20;99.90
4602;DHT22;2313;48.552;9.370;2023-09-07T13:48:13;29.20;99.90
4602;DHT22;2313;48.552;9.370;2023-09-07T13:50:39;29.20;99.90
4602;DHT22;2313;48.552;9.370;2023-09-07T13:53:05;29.20;99.90
4602;DHT22;2313;48.552;9.370;2023-09-07T13:55:30;29.20;99.90
4602;DHT22;2313;48.552;9.370;2023-09-07T13:57:56;29.20;99.90
4602;DHT22;2313;48.552;9.370;2023-09-07T14:00:22;29.20;99.90
4602;DHT22;2313;48.552;9.370;2023-09-07T14:02:47;29.20;99.90
4602;DHT22;2313;48.552;9.370;2023-09-07T14:05:13;29.20;99.90
4602;DHT22;2313;48.552;9.370;2023-09-07T14:07:38;29.20;99.90
4602;DHT22;2313;48.552;9.370;2023-09-07T14:10:04;29.20;99.90
4602;DHT22;2313;48.552;9.370;2023-09-07T14:12:30;29.00;99.90
4602;DHT22;2313;48.552;9.370;2023-09-07T14:14:56;29.00;99.90
4602;DHT22;2313;48.552;9.370;2023-09-07T14:17:21;29.10;99.90
4602;DHT22;2313;48.552;9.370;2023-09-07T14:19:47;29.10;99.90
4602;DHT22;2313;48.552;9.370;2023-09-07T14:22:12;29.10;99.90
4602;DHT22;2313;48.552;9.370;2023-09-07T14:24:38;29.10;99.90
4602;DHT22;2313;48.552;9.370;2023-09-07T14:27:04;29.10;99.90
4602;DHT22;2313;48.552;9.370;2023-09-07T14:29:30;29.10;99.90
4602;DHT22;2313;48.552;9.370;2023-09-07T14:31:56;29.10;99.90
4602;DHT22;2313;48.552;9.370;2023-09-07T14:34:21;29.10;99.90
4602;DHT22;2313;48.552;9.370;2023-09-07T14:36:47;28.90;99.90
4602;DHT22;2313;48.552;9.370;2023-09-07T14:39:13;28.90;99.90
4602;DHT22;2313;48.552;9.370;2023-09-07T14:41:39;28.80;99.90
4602;DHT22;2313;48.552;9.370;2023-09-07T14:44:05;28.80;99.60
4602;DHT22;2313;48.552;9.370;2023-09-07T14:46:31;28.80;99.90
4602;DHT22;2313;48.552;9.370;2023-09-07T14:48:57;28.80;99.90
4602;DHT22;2313;48.552;9.370;2023-09-07T14:51:23;28.70;99.70
4602;DHT22;2313;48.552;9.370;2023-09-07T14:53:49;28.70;99.90
4602;DHT22;2313;48.552;9.370;2023-09-07T14:56:15;28.60;99.90
4602;DHT22;2313;48.552;9.370;2023-09-07T14:58:40;28.60;99.70
4602;DHT22;2313;48.552;9.370;2023-09-07T15:01:06;28.50;99.90
4602;DHT22;2313;48.552;9.370;2023-09-07T15:03:32;28.50;99.90
4602;DHT22;2313;48.552;9.370;2023-09-07T15:05:58;28.50;99.90
4602;DHT22;2313;48.552;9.370;2023-09-07T15:08:24;28.50;99.90
4602;DHT22;2313;48.552;9.370;2023-09-07T15:10:50;28.40;99.90
4602;DHT22;2313;48.552;9.370;2023-09-07T15:13:15;28.40;99.90
4602;DHT22;2313;48.552;9.370;2023-09-07T15:15:41;28.40;99.90
4602;DHT22;2313;48.552;9.370;2023-09-07T15:18:07;28.20;99.90
4602;DHT22;2313;48.552;9.370;2023-09-07T15:20:33;28.20;99.90
4602;DHT22;2313;48.552;9.370;2023-09-07T15:22:59;28.10;99.90
4602;DHT22;2313;48.552;9.370;2023-09-07T15:25:25;28.10;99.90
4602;DHT22;2313;48.552;9.370;2023-09-07T15:27:54;28.10;99.90
4602;DHT22;2313;48.552;9.370;2023-09-07T15:30:21;28.00;99.90
4602;DHT22;2313;48.552;9.370;2023-09-07T15:32:47;28.00;99.90
4602;DHT22;2313;48.552;9.370;2023-09-07T15:35:13;28.00;99.90
4602;DHT22;2313;48.552;9.370;2023-09-07T15:37:39;27.90;99.90
4602;DHT22;2313;48.552;9.370;2023-09-07T15:40:07;27.80;99.90
4602;DHT22;2313;48.552;9.370;2023-09-07T15:42:33;27.70;99.90
4602;DHT22;2313;48.552;9.370;2023-09-07T15:44:59;27.70;99.90
4602;DHT22;2313;48.552;9.370;2023-09-07T15:47:25;27.70;99.90
4602;DHT22;2313;48.552;9.370;2023-09-07T15:49:52;27.60;99.90
4602;DHT22;2313;48.552;9.370;2023-09-07T15:52:19;27.60;99.90
4602;DHT22;2313;48.552;9.370;2023-09-07T15:54:44;27.50;99.90
4602;DHT22;2313;48.552;9.370;2023-09-07T15:57:10;27.50;99.90